createdAt,value
2018-07-22T06:30:50.289Z,7.90
2018-07-22T06:33:20.487Z,8.50
2018-07-22T06:35:50.521Z,7.90
2018-07-22T06:38:20.741Z,7.53
2018-07-22T06:40:50.767Z,8.23
2018-07-22T06:43:20.883Z,7.60
2018-07-22T06:45:51.274Z,7.60
2018-07-22T06:48:21.635Z,7.90
2018-07-22T06:50:52.014Z,7.70
2018-07-22T06:53:22.304Z,8.27
2018-07-22T06:55:53.507Z,7.03
2018-07-22T06:58:23.462Z,7.87
2018-07-22T07:00:53.660Z,7.23
2018-07-22T07:03:23.790Z,7.03
2018-07-22T07:05:53.944Z,7.40
2018-07-22T07:08:23.876Z,7.13
2018-07-22T07:10:54.196Z,7.10
2018-07-22T07:13:25.030Z,6.93
2018-07-22T07:15:55.204Z,7.77
2018-07-22T07:18:25.297Z,7.53
2018-07-22T07:20:56.336Z,7.57
2018-07-22T07:23:26.602Z,7.50
2018-07-22T07:25:56.582Z,7.13
2018-07-22T07:28:26.751Z,7.57
2018-07-22T07:30:57.190Z,7.70
2018-07-22T07:33:27.381Z,8.00
2018-07-22T07:35:57.561Z,7.33
2018-07-22T07:38:30.828Z,6.70
2018-07-22T07:41:01.183Z,7.40
2018-07-22T07:43:31.232Z,6.57
2018-07-22T07:46:01.590Z,7.13
2018-07-22T07:48:32.576Z,6.97
2018-07-22T07:51:03.578Z,6.95
2018-07-22T07:53:33.826Z,6.97
2018-07-22T07:56:04.137Z,7.33
2018-07-22T07:58:34.247Z,7.13
2018-07-22T08:01:04.778Z,7.00
2018-07-22T08:03:34.968Z,7.27
2018-07-22T08:06:04.955Z,6.37
2018-07-22T08:08:35.241Z,7.20
2018-07-22T08:11:05.749Z,6.47
2018-07-22T08:13:36.308Z,7.10
2018-07-22T08:16:06.774Z,7.13
2018-07-22T08:18:36.825Z,6.50
2018-07-22T08:21:07.409Z,6.73
2018-07-22T08:23:37.790Z,6.33
2018-07-22T08:26:09.248Z,6.50
2018-07-22T08:29:23.152Z,6.57
2018-07-22T08:31:53.600Z,6.33
2018-07-22T08:34:23.890Z,6.30
2018-07-22T08:36:54.366Z,6.50
2018-07-22T08:39:26.158Z,6.47
2018-07-22T08:41:56.693Z,6.90
2018-07-22T08:44:26.962Z,6.33
2018-07-22T08:46:57.034Z,5.93
2018-07-22T08:49:27.329Z,5.83
2018-07-22T08:51:57.600Z,5.80
2018-07-22T08:54:27.866Z,6.03
2018-07-22T08:56:58.170Z,5.83
2018-07-22T08:59:28.298Z,5.77
2018-07-22T09:01:58.657Z,5.67
2018-07-22T09:04:28.991Z,6.30
2018-07-22T09:06:58.915Z,6.17
2018-07-22T09:09:29.237Z,6.20
2018-07-22T09:11:59.492Z,6.10
2018-07-22T09:14:29.687Z,5.90
2018-07-22T09:16:59.881Z,5.90
2018-07-22T09:19:29.938Z,5.50
2018-07-22T09:22:00.197Z,5.90
2018-07-22T09:24:30.437Z,5.87
2018-07-22T09:27:00.480Z,5.40
2018-07-22T09:29:30.866Z,5.83
2018-07-22T09:32:02.235Z,5.73
2018-07-22T09:34:33.193Z,5.77
2018-07-22T09:37:03.508Z,5.97
2018-07-22T09:39:33.716Z,5.90
2018-07-22T09:42:03.906Z,6.13
2018-07-22T09:44:34.047Z,5.97
2018-07-22T09:47:03.998Z,6.57
2018-07-22T09:49:34.137Z,8.27
2018-07-22T09:52:04.285Z,6.37
2018-07-22T09:54:34.450Z,6.73
2018-07-22T09:57:04.539Z,6.80
2018-07-22T09:59:35.927Z,6.60
2018-07-22T10:02:06.271Z,6.60
2018-07-22T10:04:36.617Z,7.37
2018-07-22T10:07:07.036Z,6.80
2018-07-22T10:09:37.159Z,6.20
2018-07-22T10:12:07.419Z,7.30
2018-07-22T10:14:37.599Z,6.80
2018-07-22T10:17:08.339Z,7.13
2018-07-22T10:19:38.389Z,6.77
2018-07-22T10:22:09.072Z,6.90
2018-07-22T10:24:39.585Z,6.47
2018-07-22T10:27:10.322Z,7.03
2018-07-22T10:29:40.387Z,6.40
2018-07-22T10:32:10.644Z,7.13
2018-07-22T10:34:41.951Z,6.93
2018-07-22T10:37:12.007Z,7.17
2018-07-22T10:39:42.165Z,6.67
2018-07-22T10:42:12.122Z,6.90
2018-07-22T10:44:42.720Z,6.97
2018-07-22T10:47:12.676Z,7.10
2018-07-22T10:49:42.689Z,6.97
2018-07-22T10:52:12.622Z,6.80
2018-07-22T10:54:42.817Z,6.77
2018-07-22T10:57:13.241Z,6.90
2018-07-22T10:59:43.509Z,7.40
2018-07-22T11:02:14.665Z,7.05
2018-07-22T11:04:45.264Z,7.00
2018-07-22T11:07:16.159Z,7.20
2018-07-22T11:09:46.126Z,6.87
2018-07-22T11:12:16.366Z,7.10
2018-07-22T11:14:46.845Z,6.80
2018-07-22T11:17:17.147Z,7.03
2018-07-22T11:19:47.460Z,7.20
2018-07-22T11:22:17.588Z,7.40
2018-07-22T11:24:50.183Z,7.20
2018-07-22T11:27:20.517Z,7.30
2018-07-22T11:29:51.172Z,6.93
2018-07-22T11:32:21.464Z,6.97
2018-07-22T11:34:51.612Z,7.80
2018-07-22T11:37:21.674Z,7.03
2018-07-22T11:39:51.795Z,6.72
2018-07-22T11:42:22.149Z,6.95
2018-07-22T11:44:52.139Z,6.45
2018-07-22T11:47:22.713Z,6.42
2018-07-22T11:49:53.050Z,7.20
2018-07-22T11:52:23.696Z,6.78
2018-07-22T11:54:54.150Z,6.67
2018-07-22T11:57:24.390Z,6.92
2018-07-22T11:59:54.765Z,6.70
2018-07-22T12:02:24.913Z,6.70
2018-07-22T12:04:55.255Z,7.17
2018-07-22T12:07:25.556Z,7.40
2018-07-22T12:09:55.807Z,6.72
2018-07-22T12:12:25.924Z,7.23
2018-07-22T12:14:56.324Z,6.87
2018-07-22T12:17:26.681Z,6.90
2018-07-22T12:19:57.837Z,6.90
2018-07-22T12:22:28.108Z,6.97
2018-07-22T12:24:58.169Z,7.08
2018-07-22T12:27:28.521Z,7.10
2018-07-22T12:29:58.814Z,7.30
2018-07-22T12:32:29.476Z,6.95
2018-07-22T12:34:59.695Z,6.53
2018-07-22T12:37:30.142Z,6.78
2018-07-22T12:40:00.326Z,6.83
2018-07-22T12:42:30.465Z,6.60
2018-07-22T12:45:00.689Z,7.28
2018-07-22T12:47:30.807Z,6.70
2018-07-22T12:50:01.170Z,7.03
2018-07-22T12:52:31.484Z,6.67
2018-07-22T12:55:01.543Z,6.75
2018-07-22T12:57:31.590Z,6.62
2018-07-22T13:00:02.150Z,6.78
2018-07-22T13:02:32.190Z,6.40
2018-07-22T13:05:02.215Z,6.60
2018-07-22T13:07:32.546Z,6.92
2018-07-22T13:10:02.916Z,6.12
2018-07-22T13:12:33.128Z,6.60
2018-07-22T13:15:04.136Z,6.67
2018-07-22T13:20:13.421Z,6.80
2018-07-22T13:22:50.173Z,6.83
2018-07-22T13:25:20.693Z,6.42
2018-07-22T13:27:51.133Z,7.00
2018-07-22T13:30:21.492Z,6.77
2018-07-22T13:32:51.664Z,7.03
2018-07-22T13:35:22.307Z,6.83
2018-07-22T13:37:52.715Z,6.70
2018-07-22T13:40:22.776Z,6.23
2018-07-22T13:42:52.967Z,6.47
2018-07-22T13:45:23.134Z,6.60
2018-07-22T13:47:53.139Z,6.47
2018-07-22T13:50:23.130Z,5.97
2018-07-22T13:52:53.263Z,6.08
2018-07-22T13:55:23.231Z,6.58
2018-07-22T13:57:53.532Z,6.75
2018-07-22T14:00:24.911Z,6.77
2018-07-22T14:02:56.086Z,6.42
2018-07-22T14:05:26.299Z,6.97
2018-07-22T14:07:57.184Z,6.12
2018-07-22T14:10:28.540Z,6.95
2018-07-22T14:12:58.726Z,6.75
2018-07-22T14:15:28.885Z,7.10
2018-07-22T14:17:58.940Z,7.10
2018-07-22T14:20:29.103Z,7.40
2018-07-22T14:22:59.500Z,6.60
2018-07-22T14:25:29.545Z,6.83
2018-07-22T14:27:59.793Z,7.40
2018-07-22T14:30:29.905Z,6.95
2018-07-22T14:32:59.977Z,6.92
2018-07-22T14:35:29.898Z,7.10
2018-07-22T14:38:00.126Z,6.90
2018-07-22T14:40:30.362Z,7.28
2018-07-22T14:43:00.648Z,6.87
2018-07-22T14:45:30.600Z,7.40
2018-07-22T14:48:00.930Z,6.85
2018-07-22T14:50:31.827Z,7.42
2018-07-22T14:53:02.076Z,7.22
2018-07-22T14:55:33.397Z,7.47
2018-07-22T14:58:03.664Z,7.47
2018-07-22T15:00:33.887Z,7.12
2018-07-22T15:03:03.818Z,7.28
2018-07-22T15:05:33.955Z,8.05
2018-07-22T15:08:04.280Z,7.50
2018-07-22T15:10:35.460Z,7.30
2018-07-22T15:13:05.880Z,7.80
2018-07-22T15:15:36.071Z,8.03
2018-07-22T15:18:06.212Z,7.37
2018-07-22T15:20:36.432Z,7.70
2018-07-22T15:23:06.684Z,8.00
2018-07-22T15:25:36.972Z,8.08
2018-07-22T15:28:07.303Z,7.70
2018-07-22T15:30:38.616Z,7.83
2018-07-22T15:33:09.155Z,6.80
2018-07-22T15:35:39.330Z,7.20
2018-07-22T15:38:09.910Z,7.15
2018-07-22T15:40:40.027Z,7.28
2018-07-22T15:43:10.245Z,6.55
2018-07-22T15:45:40.443Z,6.17
2018-07-22T15:48:10.463Z,6.42
2018-07-22T15:50:40.759Z,6.87
2018-07-22T15:53:10.736Z,6.80
2018-07-22T15:55:41.269Z,6.10
2018-07-22T15:58:11.076Z,6.42
2018-07-22T16:00:41.501Z,6.40
2018-07-22T16:03:11.629Z,6.50
2018-07-22T16:05:41.809Z,6.28
2018-07-22T16:08:11.830Z,6.45
2018-07-22T16:10:42.134Z,5.85
2018-07-22T16:13:12.188Z,6.40
2018-07-22T16:15:42.341Z,6.28
2018-07-22T16:18:12.317Z,6.58
2018-07-22T16:20:42.691Z,5.92
2018-07-22T16:23:12.744Z,6.47
2018-07-22T16:25:42.830Z,6.30
2018-07-22T16:28:12.861Z,6.67
2018-07-22T16:30:43.133Z,6.35
2018-07-22T16:33:14.662Z,6.42
2018-07-22T16:35:44.948Z,6.62
2018-07-22T16:38:15.061Z,5.67
2018-07-22T16:40:45.185Z,6.40
2018-07-22T16:43:15.411Z,6.47
2018-07-22T16:45:45.430Z,5.97
2018-07-22T16:48:15.503Z,6.30
2018-07-22T16:50:45.921Z,6.28
2018-07-22T16:53:16.255Z,6.12
2018-07-22T16:55:46.361Z,6.37
2018-07-22T16:58:16.676Z,6.97
2018-07-22T17:00:46.613Z,6.67
2018-07-22T17:03:16.866Z,6.37
2018-07-22T17:05:47.132Z,7.15
2018-07-22T17:08:17.313Z,6.95
2018-07-22T17:10:47.588Z,7.30
2018-07-22T17:13:17.881Z,6.83
2018-07-22T17:15:48.219Z,7.53
2018-07-22T17:18:18.433Z,7.30
2018-07-22T17:20:48.432Z,6.85
2018-07-22T17:23:18.574Z,7.08
2018-07-22T17:25:48.464Z,8.10
2018-07-22T17:28:18.831Z,8.03
2018-07-22T17:30:49.109Z,8.13
2018-07-22T17:33:19.374Z,7.53
2018-07-22T17:35:50.679Z,8.00
2018-07-22T17:38:20.836Z,7.67
2018-07-22T17:40:51.059Z,7.43
2018-07-22T17:43:21.081Z,8.30
2018-07-22T17:45:52.624Z,8.47
2018-07-22T17:48:22.963Z,7.77
2018-07-22T17:50:53.160Z,7.87
2018-07-22T17:53:23.041Z,7.67
2018-07-22T17:55:53.606Z,7.97
2018-07-22T17:58:23.859Z,7.70
2018-07-22T18:00:53.968Z,7.07
2018-07-22T18:03:27.428Z,7.70
2018-07-22T18:05:57.818Z,8.33
2018-07-22T18:08:28.464Z,7.97
2018-07-22T18:10:58.664Z,8.43
2018-07-22T18:13:28.744Z,8.27
2018-07-22T18:15:59.074Z,8.47
2018-07-22T18:18:33.666Z,7.93
2018-07-22T18:21:04.765Z,8.33
2018-07-22T18:23:35.067Z,8.77
2018-07-22T18:26:05.418Z,8.00
2018-07-22T18:28:35.765Z,8.53
2018-07-22T18:31:05.799Z,8.40
2018-07-22T18:33:36.624Z,8.60
2018-07-22T18:36:07.649Z,8.57
2018-07-22T18:38:38.107Z,8.97
2018-07-22T18:41:08.098Z,8.03
2018-07-22T18:43:38.633Z,8.43
2018-07-22T18:46:08.701Z,9.10
2018-07-22T18:48:40.842Z,9.57
2018-07-22T18:51:11.348Z,8.93
2018-07-22T18:53:42.606Z,9.10
2018-07-22T18:56:12.946Z,9.80
2018-07-22T18:58:43.175Z,10.67
2018-07-22T19:01:13.201Z,10.73
2018-07-22T19:03:43.426Z,10.67
2018-07-22T19:06:13.922Z,9.87
2018-07-22T19:08:44.284Z,10.03
2018-07-22T19:11:14.646Z,10.10
2018-07-22T19:13:44.826Z,10.50
2018-07-22T19:16:14.754Z,10.67
2018-07-22T19:18:45.264Z,10.70
2018-07-22T19:21:17.377Z,10.20
2018-07-22T19:23:47.742Z,10.80
2018-07-22T19:26:18.729Z,10.67
2018-07-22T19:28:49.161Z,11.70
2018-07-22T19:31:19.446Z,10.83
2018-07-22T19:33:52.684Z,11.43
2018-07-22T19:36:23.653Z,10.60
2018-07-22T19:38:53.908Z,11.07
2018-07-22T19:41:23.840Z,10.77
2018-07-22T19:43:54.073Z,10.30
2018-07-22T19:46:24.375Z,10.93
2018-07-22T19:48:54.665Z,11.80
2018-07-22T19:51:25.161Z,11.70
2018-07-22T19:53:55.491Z,11.97
2018-07-22T19:56:25.860Z,11.33
2018-07-22T19:58:56.022Z,11.27
2018-07-22T20:01:26.371Z,11.50
2018-07-22T20:03:56.338Z,11.37
2018-07-22T20:06:26.569Z,10.63
2018-07-22T20:08:57.130Z,10.53
2018-07-22T20:11:28.216Z,10.80
2018-07-22T20:13:58.483Z,10.60
2018-07-22T20:16:28.765Z,10.47
2018-07-22T20:18:59.878Z,10.77
2018-07-22T20:21:30.613Z,11.57
2018-07-22T20:24:01.729Z,10.33
2018-07-22T20:26:31.877Z,10.83
2018-07-22T20:29:02.106Z,9.70
2018-07-22T20:31:32.481Z,11.10
2018-07-22T20:34:03.011Z,10.73
2018-07-22T20:36:33.216Z,10.93
2018-07-22T20:39:03.759Z,11.33
2018-07-22T20:41:34.674Z,11.53
2018-07-22T20:44:05.116Z,11.33
2018-07-22T20:46:35.055Z,11.30
2018-07-22T20:49:06.531Z,11.40
2018-07-22T20:51:36.550Z,11.73
2018-07-22T20:54:06.702Z,11.37
2018-07-22T20:56:36.628Z,11.77
2018-07-22T20:59:06.905Z,11.43
2018-07-22T21:01:37.110Z,11.60
2018-07-22T21:04:07.522Z,10.77
2018-07-22T21:06:37.758Z,11.80
2018-07-22T21:09:09.884Z,11.80
2018-07-22T21:11:51.107Z,11.60
2018-07-22T21:14:21.694Z,11.20
2018-07-22T21:16:51.985Z,11.27
2018-07-22T21:19:22.084Z,10.97
2018-07-22T21:21:52.407Z,10.67
2018-07-22T21:24:22.497Z,11.03
2018-07-22T21:26:52.773Z,10.30
2018-07-22T21:29:23.173Z,10.50
2018-07-22T21:31:54.336Z,10.07
2018-07-22T21:34:24.760Z,11.20
2018-07-22T21:36:55.156Z,10.73
2018-07-22T21:39:25.434Z,10.77
2018-07-22T21:41:55.444Z,11.17
2018-07-22T21:44:25.789Z,10.10
2018-07-22T21:46:55.759Z,10.77
2018-07-22T21:49:25.834Z,11.10
2018-07-22T21:51:58.223Z,9.80
2018-07-22T21:54:28.529Z,9.60
2018-07-22T21:56:59.043Z,9.60
2018-07-22T21:59:29.502Z,10.80
2018-07-22T22:01:59.911Z,10.30
2018-07-22T22:04:30.244Z,9.87
2018-07-22T22:07:00.473Z,9.90
2018-07-22T22:09:30.626Z,10.13
2018-07-22T22:12:00.957Z,10.17
2018-07-22T22:14:31.038Z,10.57
2018-07-22T22:17:00.964Z,10.27
2018-07-22T22:19:31.153Z,11.40
2018-07-22T22:22:01.038Z,10.20
2018-07-22T22:24:31.309Z,10.60
2018-07-22T22:27:01.404Z,10.27
2018-07-22T22:29:31.471Z,10.80
2018-07-22T22:32:01.682Z,10.57
2018-07-22T22:34:31.672Z,11.03
2018-07-22T22:37:02.176Z,11.40
2018-07-22T22:39:32.633Z,10.30
2018-07-22T22:42:02.887Z,11.37
2018-07-22T22:44:32.921Z,10.70
2018-07-22T22:47:03.114Z,11.03
2018-07-22T22:49:33.471Z,11.50
2018-07-22T22:52:03.840Z,11.00
2018-07-22T22:54:35.094Z,10.47
2018-07-22T22:57:05.387Z,10.83
2018-07-22T22:59:35.419Z,10.80
2018-07-22T23:02:06.121Z,10.73
2018-07-22T23:04:36.163Z,11.03
2018-07-22T23:07:06.480Z,10.97
2018-07-22T23:09:36.727Z,10.50
2018-07-22T23:12:07.879Z,10.33
2018-07-22T23:14:37.998Z,10.90
2018-07-22T23:17:08.210Z,10.40
2018-07-22T23:19:39.368Z,10.20
2018-07-22T23:22:09.942Z,11.43
2018-07-22T23:24:39.941Z,10.30
2018-07-22T23:27:10.501Z,11.10
2018-07-22T23:29:40.763Z,11.73
2018-07-22T23:32:11.828Z,11.23
2018-07-22T23:34:41.973Z,12.03
2018-07-22T23:37:11.948Z,11.47
2018-07-22T23:39:42.148Z,11.83
2018-07-22T23:42:12.379Z,10.90
2018-07-22T23:44:42.461Z,11.57
2018-07-22T23:47:12.704Z,11.53
2018-07-22T23:49:42.867Z,11.50
2018-07-22T23:52:13.092Z,11.00
2018-07-22T23:54:43.279Z,12.33
2018-07-22T23:57:13.377Z,11.60
2018-07-22T23:59:43.680Z,11.13
